Time;durP1;ratioP1;P1;durP2;ratioP2;P2;SDS_P1;SDS_P2;PMS_P1;PMS_P2;Temp;Humidity;BMP_temperature;BMP_pressure;BME280_temperature;BME280_humidity;BME280_pressure;Samples;Min_cycle;Max_cycle;Signal;HPM_P1;HPM_P2
2021/12/27 00:02:24;;;;;;;;;7.00;5.00;;;;;12.48;74.26;99594.69;5065073;27;45638;-61
2021/12/27 00:04:50;;;;;;;;;5.33;5.33;;;;;12.62;73.90;99605.41;5072149;27;46033;-60
2021/12/27 00:07:15;;;;;;;;;4.25;4.25;;;;;12.65;74.47;99608.06;5070472;28;45437;-63
2021/12/27 00:09:41;;;;;;;;;6.67;4.00;;;;;12.61;73.82;99590.22;5071848;27;45356;-61
2021/12/27 00:12:07;;;;;;;;;7.00;4.33;;;;;12.64;73.95;99600.06;5072445;27;45433;-61
2021/12/27 00:14:33;;;;;;;;;9.25;6.75;;;;;12.62;73.75;99592.03;5064250;27;46485;-61
2021/12/27 00:16:58;;;;;;;;;3.33;3.33;;;;;12.60;73.51;99588.44;5055166;28;45557;-62
2021/12/27 00:19:23;;;;;;;;;4.00;1.00;;;;;12.61;73.82;99592.91;5069353;28;45591;-61
2021/12/27 00:21:49;;;;;;;;;4.00;4.00;;;;;12.63;74.03;99591.09;5062886;27;45439;-61
2021/12/27 00:24:14;;;;;;;;;4.00;3.33;;;;;12.48;73.83;99573.25;5066383;28;46277;-62
2021/12/27 00:26:40;;;;;;;;;4.00;3.00;;;;;12.59;73.88;99592.03;5057402;28;45555;-60
2021/12/27 00:29:05;;;;;;;;;4.00;2.00;;;;;12.61;73.49;99586.66;5067175;27;45502;-61
2021/12/27 00:31:31;;;;;;;;;4.67;2.33;;;;;12.57;73.72;99585.75;5063305;28;45663;-62
2021/12/27 00:33:56;;;;;;;;;2.67;2.67;;;;;12.55;74.09;99584.88;5062589;27;46330;-60
2021/12/27 00:36:21;;;;;;;;;2.00;2.00;;;;;12.54;74.23;99572.38;5071543;28;45285;-63
2021/12/27 00:38:47;;;;;;;;;4.33;3.67;;;;;12.56;74.46;99575.94;5074132;27;45232;-60
2021/12/27 00:41:12;;;;;;;;;2.67;2.00;;;;;12.56;73.54;99573.25;5062615;27;45526;-62
2021/12/27 00:43:38;;;;;;;;;4.00;1.00;;;;;12.55;73.97;99568.78;5074256;28;45243;-61
2021/12/27 00:46:03;;;;;;;;;3.00;2.00;;;;;12.53;73.75;99574.13;5074161;27;45475;-61
2021/12/27 00:48:28;;;;;;;;;1.00;1.00;;;;;12.48;74.27;99569.69;5073612;27;45617;-61
2021/12/27 00:50:54;;;;;;;;;2.67;2.67;;;;;12.42;73.80;99541.09;5071798;28;45674;-62
2021/12/27 00:53:20;;;;;;;;;1.00;1.00;;;;;12.59;73.92;99567.00;5064982;28;45938;-60
2021/12/27 00:55:45;;;;;;;;;5.33;2.00;;;;;12.61;74.23;99575.94;5065748;27;45588;-61
2021/12/27 00:58:11;;;;;;;;;0.33;0.33;;;;;12.59;73.44;99570.59;5071034;28;45338;-61
2021/12/27 01:00:37;;;;;;;;;1.33;1.33;;;;;12.57;73.11;99564.31;5075063;28;46464;-61
2021/12/27 01:03:03;;;;;;;;;5.67;2.67;;;;;12.59;73.46;99565.22;5063747;28;46351;-60
2021/12/27 01:05:29;;;;;;;;;6.33;4.33;;;;;12.66;73.36;99568.78;5065647;28;45301;-62
2021/12/27 01:07:55;;;;;;;;;1.00;1.00;;;;;12.67;74.01;99559.84;5064448;28;45467;-61
2021/12/27 01:18:06;;;;;;;;;1.33;1.33;;;;;12.69;73.90;99558.06;5073344;28;45419;-62
2021/12/27 01:20:32;;;;;;;;;9.00;3.00;;;;;12.69;73.22;99550.91;5073280;28;45510;-60
2021/12/27 01:22:58;;;;;;;;;2.33;2.00;;;;;12.61;73.07;99542.00;5067726;28;46284;-61
2021/12/27 01:25:24;;;;;;;;;1.00;1.00;;;;;12.70;73.36;99550.03;5072733;28;45471;-61
2021/12/27 01:27:53;;;;;;;;;3.67;2.00;;;;;12.69;73.81;99553.59;5072132;28;45562;-62
2021/12/27 01:30:20;;;;;;;;;3.00;2.00;;;;;12.68;72.99;99543.75;5070679;28;45450;-61
2021/12/27 01:32:51;;;;;;;;;3.33;2.00;;;;;12.68;73.69;99541.06;5073978;28;45997;-61
2021/12/27 01:35:17;;;;;;;;;1.67;1.67;;;;;12.65;73.80;99530.34;5067313;28;45629;-61
2021/12/27 01:37:42;;;;;;;;;1.67;1.67;;;;;12.71;73.68;99540.19;5060010;28;45371;-61
2021/12/27 01:40:09;;;;;;;;;1.00;1.00;;;;;12.73;73.89;99531.25;5075027;28;45469;-61
2021/12/27 01:42:35;;;;;;;;;10.50;8.50;;;;;12.76;72.76;99526.78;5073543;28;46291;-60
2021/12/27 01:45:01;;;;;;;;;1.00;1.00;;;;;12.74;72.92;99526.78;5069277;28;45577;-61
2021/12/27 01:47:28;;;;;;;;;1.00;1.00;;;;;12.79;73.56;99521.44;5073508;28;45397;-61
2021/12/27 01:49:54;;;;;;;;;2.33;2.00;;;;;12.70;73.19;99504.47;5070819;28;45358;-61
2021/12/27 01:52:19;;;;;;;;;2.67;2.67;;;;;12.85;72.75;99516.03;5070674;28;45469;-61
2021/12/27 01:54:45;;;;;;;;;2.00;1.67;;;;;12.87;72.93;99515.16;5067571;28;45371;-60
2021/12/27 01:57:11;;;;;;;;;4.33;1.00;;;;;12.88;72.94;99513.34;5073467;27;45299;-62
2021/12/27 01:59:37;;;;;;;;;2.67;1.67;;;;;12.81;72.62;99508.91;5073905;28;45612;-63
2021/12/27 02:02:03;;;;;;;;;2.00;2.00;;;;;12.84;73.28;99519.63;5063103;28;46081;-63
2021/12/27 02:04:28;;;;;;;;;2.33;2.33;;;;;12.82;72.96;99526.75;5071365;28;46302;-61
2021/12/27 02:06:53;;;;;;;;;1.00;1.00;;;;;12.79;72.69;99526.78;5073968;28;45582;-63
2021/12/27 02:09:30;;;;;;;;;4.33;2.33;;;;;12.76;72.51;99514.28;5059978;28;46432;-61
2021/12/27 02:11:55;;;;;;;;;2.33;2.00;;;;;12.53;73.32;99480.38;5054517;28;45990;-61
2021/12/27 02:14:21;;;;;;;;;2.00;2.00;;;;;12.75;72.90;99519.63;5054656;28;45398;-62
2021/12/27 02:16:46;;;;;;;;;4.00;3.00;;;;;12.76;73.16;99513.41;5054674;28;45446;-61
2021/12/27 02:19:12;;;;;;;;;2.00;2.00;;;;;12.78;73.03;99509.78;5069179;28;45449;-60
2021/12/27 02:21:37;;;;;;;;;1.00;1.00;;;;;12.63;72.68;99481.25;5074765;28;46168;-61
2021/12/27 02:24:04;;;;;;;;;2.00;2.00;;;;;12.78;73.57;99506.22;5075355;28;45574;-62
2021/12/27 02:26:29;;;;;;;;;1.00;1.00;;;;;12.73;74.19;99512.47;5074865;28;45271;-62
2021/12/27 02:28:54;;;;;;;;;0.67;0.67;;;;;12.73;74.47;99507.13;5062798;28;45692;-62
2021/12/27 02:31:20;;;;;;;;;1.67;1.67;;;;;12.63;73.89;99477.69;5054560;28;45437;-61
2021/12/27 02:33:45;;;;;;;;;1.67;1.67;;;;;12.57;74.17;99467.84;5054627;28;45446;-61
2021/12/27 02:36:12;;;;;;;;;4.00;1.00;;;;;12.68;74.75;99492.84;5056079;28;45603;-63
2021/12/27 02:38:41;;;;;;;;;3.67;2.00;;;;;12.70;73.80;99487.47;5058957;28;45547;-61
2021/12/27 02:41:08;;;;;;;;;2.00;1.67;;;;;12.69;73.58;99491.97;5074600;28;45597;-63
2021/12/27 02:43:35;;;;;;;;;4.67;3.33;;;;;12.66;73.96;99489.28;5074512;28;45315;-61
2021/12/27 02:46:04;;;;;;;;;2.33;2.33;;;;;12.67;74.02;99499.13;5070747;28;45451;-61
2021/12/27 02:48:33;;;;;;;;;3.67;3.67;;;;;12.67;74.31;99493.75;5054492;28;45602;-62
2021/12/27 02:50:59;;;;;;;;;3.00;1.33;;;;;12.65;74.34;99484.81;5054527;28;45751;-61
2021/12/27 02:53:26;;;;;;;;;4.33;3.00;;;;;12.62;74.34;99481.25;5054162;28;45614;-61
2021/12/27 02:55:54;;;;;;;;;3.33;3.00;;;;;12.25;74.02;99420.63;5054968;28;45544;-61
2021/12/27 02:58:20;;;;;;;;;5.67;4.00;;;;;12.61;73.58;99476.81;5073764;28;45459;-62
2021/12/27 03:00:55;;;;;;;;;1.00;1.00;;;;;12.59;73.34;99471.44;5074097;28;45408;-62
2021/12/27 03:03:21;;;;;;;;;1.33;1.00;;;;;12.61;74.18;99476.81;5074404;28;45357;-60
2021/12/27 03:05:47;;;;;;;;;3.33;2.00;;;;;12.59;73.73;99468.78;5073189;28;45361;-61
2021/12/27 03:08:16;;;;;;;;;7.33;3.00;;;;;12.48;73.67;99446.47;5056172;27;45665;-61
2021/12/27 03:10:45;;;;;;;;;2.33;2.33;;;;;12.56;73.95;99458.06;5053903;28;46278;-61
2021/12/27 03:13:25;;;;;;;;;3.00;3.00;;;;;12.57;73.60;99466.97;5053698;28;45400;-61
2021/12/27 03:15:56;;;;;;;;;2.00;2.00;;;;;12.52;73.82;99473.25;5053946;28;45439;-61
2021/12/27 03:18:23;;;;;;;;;1.67;1.67;;;;;12.52;73.63;99477.69;5060200;28;45321;-62
2021/12/27 03:20:52;;;;;;;;;7.00;4.00;;;;;12.49;73.19;99467.91;5074110;28;46212;-61
2021/12/27 03:23:17;;;;;;;;;5.67;3.33;;;;;12.49;73.44;99467.91;5074166;28;45398;-62
2021/12/27 03:25:43;;;;;;;;;4.00;3.00;;;;;12.44;73.29;99453.63;5074083;28;45480;-61
2021/12/27 03:28:08;;;;;;;;;3.67;2.00;;;;;12.37;73.63;99440.25;5069965;28;45343;-60
2021/12/27 03:30:35;;;;;;;;;6.00;4.33;;;;;12.52;73.85;99461.63;5053986;28;46324;-61
2021/12/27 03:33:02;;;;;;;;;6.67;3.00;;;;;12.39;73.56;99431.31;5053728;28;45335;-62
2021/12/27 03:35:34;;;;;;;;;7.25;4.25;;;;;12.52;73.20;99462.53;5053774;28;45386;-60
2021/12/27 03:38:01;;;;;;;;;4.33;3.33;;;;;12.48;73.59;99439.31;5055797;28;45825;-61
2021/12/27 03:40:27;;;;;;;;;1.67;1.67;;;;;12.54;73.02;99449.13;5073520;28;46376;-61
2021/12/27 03:42:55;;;;;;;;;4.00;4.00;;;;;12.58;73.04;99445.53;5073322;28;45329;-61
2021/12/27 03:45:24;;;;;;;;;6.33;4.00;;;;;12.58;73.14;99444.66;5073954;28;45465;-61
2021/12/27 03:47:50;;;;;;;;;7.00;3.33;;;;;12.56;72.88;99423.22;5073458;28;45367;-61
2021/12/27 03:50:16;;;;;;;;;5.00;3.33;;;;;12.64;73.29;99431.25;5053830;28;46259;-60
2021/12/27 03:52:42;;;;;;;;;2.33;2.33;;;;;12.69;72.65;99424.97;5053639;28;45502;-61
2021/12/27 03:55:09;;;;;;;;;3.00;3.00;;;;;12.72;73.23;99426.75;5053412;28;45378;-61
2021/12/27 03:57:36;;;;;;;;;2.67;2.00;;;;;12.72;72.45;99422.28;5065258;28;45489;-60
2021/12/27 04:00:26;;;;;;;;;5.67;1.00;;;;;12.75;72.71;99420.47;5073538;28;45374;-61
2021/12/27 04:02:55;;;;;;;;;3.00;3.00;;;;;12.74;72.78;99422.28;5073253;28;45383;-62
2021/12/27 04:05:21;;;;;;;;;4.00;3.00;;;;;12.75;72.74;99417.78;5073761;28;45469;-61
2021/12/27 04:07:55;;;;;;;;;7.00;5.33;;;;;12.63;72.91;99402.66;5061017;28;45519;-62
2021/12/27 04:10:21;;;;;;;;;3.00;3.00;;;;;12.79;72.83;99419.59;5056776;28;46172;-61
2021/12/27 04:12:46;;;;;;;;;5.67;1.67;;;;;12.77;72.87;99418.66;5056583;28;45425;-60
2021/12/27 04:15:12;;;;;;;;;4.67;3.00;;;;;12.80;72.70;99422.25;5056953;28;45487;-61
2021/12/27 04:17:37;;;;;;;;;4.00;2.00;;;;;12.56;72.88;99376.81;5069549;28;45518;-60
2021/12/27 04:20:04;;;;;;;;;8.33;4.67;;;;;12.78;71.93;99410.63;5076837;28;46313;-61
2021/12/27 04:22:33;;;;;;;;;3.00;3.00;;;;;12.84;72.37;99415.09;5076857;28;45311;-62
2021/12/27 04:24:58;;;;;;;;;6.67;4.33;;;;;12.84;72.32;99420.44;5076950;28;45798;-62
2021/12/27 04:27:24;;;;;;;;;5.33;4.00;;;;;12.80;72.14;99413.31;5066494;28;45441;-62
2021/12/27 04:29:49;;;;;;;;;6.67;4.33;;;;;12.79;72.30;99401.69;5038115;28;47213;-61
2021/12/27 04:32:14;;;;;;;;;6.67;4.33;;;;;12.81;72.57;99405.25;5056102;28;45430;-61
2021/12/27 04:34:40;;;;;;;;;4.67;4.00;;;;;12.83;72.70;99400.78;5056461;28;45432;-63
2021/12/27 04:37:05;;;;;;;;;3.33;3.00;;;;;12.45;71.85;99345.56;5063996;28;45288;-61
2021/12/27 04:39:31;;;;;;;;;4.00;4.00;;;;;12.83;72.53;99407.94;5076514;28;46160;-62
2021/12/27 04:41:57;;;;;;;;;6.00;4.00;;;;;12.87;72.67;99412.41;5075994;28;45492;-62
2021/12/27 04:44:22;;;;;;;;;5.00;2.67;;;;;12.84;72.27;99407.94;5076439;28;45437;-61
2021/12/27 04:46:48;;;;;;;;;4.00;3.00;;;;;12.86;71.85;99405.25;5076339;28;45508;-61
2021/12/27 04:49:13;;;;;;;;;10.00;6.00;;;;;12.84;72.44;99404.38;5076444;28;46091;-62
2021/12/27 04:51:39;;;;;;;;;6.00;3.33;;;;;12.76;71.44;99407.06;5076528;28;45476;-61
2021/12/27 04:54:04;;;;;;;;;3.00;3.00;;;;;12.85;71.49;99417.78;5076956;28;45370;-62
2021/12/27 04:56:29;;;;;;;;;5.00;4.33;;;;;12.84;71.79;99420.44;5074696;27;45348;-62
2021/12/27 04:58:55;;;;;;;;;5.33;4.00;;;;;12.84;72.42;99425.81;5076543;28;46210;-63
2021/12/27 05:01:22;;;;;;;;;7.00;4.33;;;;;12.84;71.85;99431.19;5076666;28;45624;-63
2021/12/27 05:03:47;;;;;;;;;3.67;3.67;;;;;12.81;71.90;99433.88;5076563;28;45538;-61
2021/12/27 05:06:13;;;;;;;;;4.00;4.00;;;;;12.76;71.97;99430.31;5063004;28;45380;-61
2021/12/27 05:08:40;;;;;;;;;4.33;4.00;;;;;12.76;71.62;99435.66;5066208;28;46310;-60
2021/12/27 05:11:05;;;;;;;;;7.33;4.00;;;;;12.75;71.49;99436.56;5055863;28;45464;-62
2021/12/27 05:13:32;;;;;;;;;5.33;3.33;;;;;12.72;71.50;99442.84;5055660;28;45549;-61
2021/12/27 05:15:59;;;;;;;;;4.33;4.33;;;;;12.71;71.56;99444.59;5056150;28;45535;-63
2021/12/27 05:18:24;;;;;;;;;5.00;3.00;;;;;12.67;72.38;99450.88;5058131;28;45425;-62
2021/12/27 05:20:50;;;;;;;;;5.00;2.00;;;;;12.55;71.92;99429.47;5075350;28;45394;-63
2021/12/27 05:23:15;;;;;;;;;7.00;6.00;;;;;12.58;72.46;99437.50;5076051;28;45446;-61
2021/12/27 05:25:41;;;;;;;;;4.00;2.00;;;;;12.54;72.64;99425.03;5076180;28;45532;-62
2021/12/27 05:28:06;;;;;;;;;9.67;5.67;;;;;12.62;72.62;99436.63;5075141;28;45431;-62
2021/12/27 05:30:32;;;;;;;;;6.67;4.00;;;;;12.64;72.77;99439.28;5055322;28;45321;-62
2021/12/27 05:32:57;;;;;;;;;7.00;4.67;;;;;12.62;72.33;99428.56;5055513;28;45814;-60
2021/12/27 05:35:22;;;;;;;;;6.00;3.00;;;;;12.51;72.27;99404.47;5055602;28;45296;-61
2021/12/27 05:37:48;;;;;;;;;4.00;4.00;;;;;12.23;72.57;99342.09;5069763;28;45334;-61
2021/12/27 05:40:17;;;;;;;;;6.00;5.00;;;;;12.67;72.31;99413.38;5075584;28;45315;-60
2021/12/27 05:42:43;;;;;;;;;4.67;3.67;;;;;12.64;71.68;99401.78;5075437;28;45350;-60
2021/12/27 05:45:08;;;;;;;;;6.33;4.67;;;;;12.70;71.62;99399.97;5075905;28;45379;-63
2021/12/27 05:47:34;;;;;;;;;5.33;5.33;;;;;12.52;72.21;99389.28;5062766;28;45508;-62
2021/12/27 05:50:00;;;;;;;;;6.33;6.33;;;;;12.64;72.36;99386.59;5055056;28;45296;-61
2021/12/27 05:52:25;;;;;;;;;4.00;4.00;;;;;12.67;72.55;99374.94;5055237;28;45267;-61
2021/12/27 05:54:51;;;;;;;;;5.00;5.00;;;;;12.64;72.66;99370.50;5055785;28;45371;-63
2021/12/27 05:57:16;;;;;;;;;6.67;3.33;;;;;11.94;71.80;99241.31;5064155;28;46545;-63
2021/12/27 05:59:41;;;;;;;;;8.33;6.00;;;;;12.62;72.38;99356.22;5075076;28;45456;-61
2021/12/27 06:02:07;;;;;;;;;6.00;3.67;;;;;12.61;72.93;99351.75;5077688;28;45649;-62
2021/12/27 06:04:32;;;;;;;;;4.00;4.00;;;;;12.63;71.81;99347.28;5092274;28;44922;-60
2021/12/27 06:06:57;;;;;;;;;7.00;6.00;;;;;12.42;72.00;99307.19;5091668;28;45182;-60
2021/12/27 06:09:23;;;;;;;;;5.00;5.00;;;;;12.57;72.14;99317.81;5089750;28;45102;-60
2021/12/27 06:11:48;;;;;;;;;8.00;8.00;;;;;12.56;72.78;99317.88;5072051;28;45114;-60
2021/12/27 06:14:13;;;;;;;;;6.67;6.00;;;;;12.58;71.93;99310.69;5087989;28;45327;-62
2021/12/27 06:16:39;;;;;;;;;7.67;7.33;;;;;12.55;72.48;99276.75;5077017;28;49519;-60
2021/12/27 06:19:04;;;;;;;;;7.00;7.00;;;;;12.60;71.85;99291.03;5070747;28;45082;-61
2021/12/27 06:21:33;;;;;;;;;8.67;7.00;;;;;12.63;72.37;99282.97;5092192;28;45033;-63
2021/12/27 06:23:58;;;;;;;;;12.00;9.00;;;;;12.54;72.62;99270.53;5092281;28;45195;-63
2021/12/27 06:26:24;;;;;;;;;8.25;8.00;;;;;12.50;71.94;99259.81;5070779;28;45519;-61
2021/12/27 06:28:49;;;;;;;;;7.67;5.33;;;;;12.48;71.14;99253.59;5069091;28;45530;-61
2021/12/27 06:31:14;;;;;;;;;10.00;7.00;;;;;12.42;72.69;99243.78;5081055;28;45078;-61
2021/12/27 06:33:40;;;;;;;;;4.67;4.67;;;;;12.29;72.56;99234.94;5076692;28;45211;-61
2021/12/27 06:36:05;;;;;;;;;6.67;5.33;;;;;12.29;73.09;99240.31;5070147;28;45793;-62
2021/12/27 06:38:31;;;;;;;;;6.00;6.00;;;;;12.23;71.82;99234.97;5070412;28;44947;-62
2021/12/27 06:40:58;;;;;;;;;8.25;7.00;;;;;12.16;72.37;99217.16;5069398;28;45046;-60
2021/12/27 06:43:24;;;;;;;;;4.00;4.00;;;;;12.11;72.40;99213.59;5054275;28;45581;-61
2021/12/27 06:45:50;;;;;;;;;8.67;6.33;;;;;12.00;72.63;99196.72;5086156;28;45489;-60
2021/12/27 06:48:15;;;;;;;;;6.00;6.00;;;;;12.13;72.46;99201.13;5092386;28;45005;-61
2021/12/27 06:50:41;;;;;;;;;8.50;6.75;;;;;12.16;71.91;99211.81;5092377;28;45085;-61
2021/12/27 06:53:07;;;;;;;;;7.75;7.75;;;;;12.19;72.45;99208.22;5085778;28;45081;-60
2021/12/27 06:55:32;;;;;;;;;7.00;5.25;;;;;12.13;72.01;99212.72;5069449;28;45585;-61
2021/12/27 06:57:58;;;;;;;;;9.00;7.75;;;;;12.09;72.51;99213.63;5070094;28;45346;-60
2021/12/27 07:00:23;;;;;;;;;18.00;17.00;;;;;11.94;72.36;99201.19;5069930;28;45716;-61
2021/12/27 07:02:50;;;;;;;;;9.25;6.50;;;;;12.02;72.24;99210.97;5074469;28;45465;-62
2021/12/27 07:05:17;;;;;;;;;7.67;6.33;;;;;11.96;71.80;99218.13;5073056;28;45536;-61
2021/12/27 07:07:43;;;;;;;;;4.75;4.00;;;;;11.99;72.28;99219.91;5071137;28;45033;-63
2021/12/27 07:10:11;;;;;;;;;10.75;8.75;;;;;12.01;72.79;99214.53;5090209;28;45229;-61
2021/12/27 07:12:36;;;;;;;;;7.00;6.00;;;;;11.58;72.20;99143.31;5083031;28;45509;-60
2021/12/27 07:15:02;;;;;;;;;5.25;4.75;;;;;12.06;71.81;99218.09;5070024;28;45512;-62
2021/12/27 07:17:27;;;;;;;;;5.33;4.33;;;;;12.04;71.72;99223.44;5068943;28;45060;-62
2021/12/27 07:19:53;;;;;;;;;10.25;7.25;;;;;12.00;71.92;99212.78;5071510;28;45168;-61
2021/12/27 07:22:19;;;;;;;;;6.00;6.00;;;;;11.83;72.50;99183.34;5090185;28;45374;-62
2021/12/27 07:24:44;;;;;;;;;9.33;6.33;;;;;12.01;72.38;99214.53;5090036;28;45258;-61
2021/12/27 07:27:10;;;;;;;;;10.00;6.00;;;;;11.96;72.56;99204.75;5090151;28;45012;-61
2021/12/27 07:29:35;;;;;;;;;7.00;5.25;;;;;11.92;71.44;99210.13;5090628;28;44994;-62
2021/12/27 07:32:00;;;;;;;;;6.75;5.50;;;;;11.83;71.94;99204.75;5070935;28;45254;-61
2021/12/27 07:34:27;;;;;;;;;11.25;7.50;;;;;11.71;71.55;99190.53;5070950;28;45564;-60
2021/12/27 07:36:54;;;;;;;;;9.75;8.50;;;;;11.78;72.43;99199.44;5070873;28;45101;-62
2021/12/27 07:39:21;;;;;;;;;9.33;6.00;;;;;11.87;72.22;99228.84;5071484;28;45251;-60
2021/12/27 07:41:46;;;;;;;;;12.75;10.50;;;;;11.85;71.91;99225.28;5085357;28;45544;-60
2021/12/27 07:44:11;;;;;;;;;7.67;6.00;;;;;11.71;71.35;99201.22;5092724;28;46021;-62
2021/12/27 07:46:40;;;;;;;;;9.67;4.67;;;;;11.90;71.51;99225.28;5092310;28;45019;-61
2021/12/27 07:49:07;;;;;;;;;4.00;3.67;;;;;11.73;71.82;99209.25;5091591;28;45357;-61
2021/12/27 07:51:32;;;;;;;;;4.25;4.25;;;;;11.81;72.14;99212.78;5091742;28;45251;-60
2021/12/27 07:53:58;;;;;;;;;5.00;3.00;;;;;11.69;72.08;99196.78;5093798;28;45890;-60
2021/12/27 07:56:23;;;;;;;;;6.00;3.33;;;;;11.77;71.66;99219.94;5092925;27;45547;-61
2021/12/27 07:58:48;;;;;;;;;9.75;6.00;;;;;11.73;71.82;99225.31;5092327;28;45394;-59
2021/12/27 08:01:14;;;;;;;;;9.00;8.00;;;;;11.68;72.88;99203.03;5083918;28;45109;-61
2021/12/27 08:03:39;;;;;;;;;6.00;6.00;;;;;11.76;71.18;99212.84;5072394;28;45612;-59
2021/12/27 08:06:04;;;;;;;;;4.00;4.00;;;;;11.74;71.33;99214.59;5071675;28;45284;-60
2021/12/27 08:08:30;;;;;;;;;6.00;5.00;;;;;11.78;72.46;99202.13;5073558;28;45025;-59
2021/12/27 08:10:55;;;;;;;;;5.50;3.75;;;;;11.77;71.42;99206.56;5074785;28;45135;-60
2021/12/27 08:13:21;;;;;;;;;3.25;3.25;;;;;11.67;71.42;99203.94;5074028;28;45220;-59
2021/12/27 08:15:47;;;;;;;;;8.25;6.25;;;;;11.76;71.95;99211.91;5074508;28;45077;-60
2021/12/27 08:18:12;;;;;;;;;4.25;4.25;;;;;11.73;71.26;99201.22;5072183;28;45513;-60
2021/12/27 08:20:38;;;;;;;;;5.00;5.00;;;;;11.80;70.81;99213.72;5067503;28;45366;-60
2021/12/27 08:23:03;;;;;;;;;7.50;4.75;;;;;11.70;71.18;99190.56;5071076;28;45672;-59
2021/12/27 08:25:29;;;;;;;;;15.25;13.75;;;;;11.69;71.88;99180.75;5070622;28;45466;-61
2021/12/27 08:27:54;;;;;;;;;7.00;5.50;;;;;11.71;71.08;99186.97;5064522;28;45742;-60
2021/12/27 08:30:20;;;;;;;;;8.25;5.00;;;;;11.64;71.55;99180.75;5064304;27;45516;-60
2021/12/27 08:32:46;;;;;;;;;4.75;4.75;;;;;11.68;71.21;99187.88;5072845;28;45930;-59
2021/12/27 08:35:13;;;;;;;;;5.50;3.50;;;;;11.59;71.41;99188.78;5075959;28;45398;-61
2021/12/27 08:37:39;;;;;;;;;4.75;4.00;;;;;11.64;71.75;99193.25;5076402;28;45718;-60
2021/12/27 08:40:05;;;;;;;;;7.50;4.25;;;;;11.44;72.15;99165.66;5076015;28;45595;-60
2021/12/27 08:42:31;;;;;;;;;5.00;4.50;;;;;11.71;71.67;99197.66;5075520;28;45463;-60
2021/12/27 08:44:57;;;;;;;;;8.50;5.50;;;;;11.72;72.01;99194.13;5061206;28;45433;-60
2021/12/27 08:47:22;;;;;;;;;9.25;4.00;;;;;11.74;71.53;99187.84;5065232;28;45496;-59
2021/12/27 08:49:47;;;;;;;;;8.50;5.50;;;;;11.78;71.61;99186.94;5064196;28;45580;-60
2021/12/27 08:52:13;;;;;;;;;4.25;4.25;;;;;11.77;71.22;99184.28;5064819;28;45436;-60
2021/12/27 08:54:38;;;;;;;;;6.25;4.25;;;;;11.79;70.93;99182.47;5057848;28;45431;-60
2021/12/27 08:57:05;;;;;;;;;3.75;3.00;;;;;11.75;71.73;99181.63;5074974;27;45498;-62
2021/12/27 08:59:31;;;;;;;;;4.50;4.50;;;;;11.78;71.16;99175.38;5096740;27;45531;-59
2021/12/27 09:01:57;;;;;;;;;7.75;6.50;;;;;11.83;71.71;99162.84;5096052;27;45468;-60
2021/12/27 09:04:23;;;;;;;;;4.00;4.00;;;;;11.81;71.85;99161.94;5095931;27;45319;-60
2021/12/27 09:06:49;;;;;;;;;14.75;11.75;;;;;11.86;71.50;99167.28;5095306;27;45354;-61
2021/12/27 09:09:15;;;;;;;;;7.50;7.00;;;;;11.87;70.93;99172.63;5096083;27;45548;-61
2021/12/27 09:11:41;;;;;;;;;10.25;7.25;;;;;11.86;71.48;99168.16;5105283;27;45419;-61
2021/12/27 09:14:07;;;;;;;;;4.50;4.50;;;;;11.82;71.69;99174.44;5083746;27;45601;-61
2021/12/27 09:16:32;;;;;;;;;5.00;5.00;;;;;11.75;71.98;99170.03;5096143;27;45396;-60
2021/12/27 09:18:58;;;;;;;;;4.75;4.75;;;;;11.82;71.09;99177.13;5082253;27;45558;-60
2021/12/27 09:21:24;;;;;;;;;5.75;4.00;;;;;11.80;71.09;99171.78;5075768;27;46182;-62
2021/12/27 09:23:50;;;;;;;;;7.75;7.50;;;;;11.87;71.08;99169.09;5075609;27;45545;-60
2021/12/27 09:26:15;;;;;;;;;5.75;5.75;;;;;11.90;71.38;99169.06;5075755;28;45460;-59
2021/12/27 09:28:40;;;;;;;;;8.00;5.50;;;;;11.91;71.22;99170.84;5074154;28;45401;-60
2021/12/27 09:31:06;;;;;;;;;6.25;6.00;;;;;11.92;70.72;99164.63;5087572;27;46857;-62
2021/12/27 09:33:31;;;;;;;;;7.00;6.50;;;;;11.92;71.06;99157.47;5075039;27;45407;-59
2021/12/27 09:35:57;;;;;;;;;5.00;3.25;;;;;11.90;70.80;99169.94;5075279;28;45405;-62
2021/12/27 09:38:23;;;;;;;;;5.00;5.00;;;;;11.75;71.15;99136.13;5075552;27;45301;-59
2021/12/27 09:40:48;;;;;;;;;7.50;6.00;;;;;11.71;71.17;99122.75;5074464;27;46840;-60
2021/12/27 09:43:14;;;;;;;;;5.00;5.00;;;;;11.89;71.31;99149.44;5075100;27;45330;-60
2021/12/27 09:45:39;;;;;;;;;5.00;4.00;;;;;11.98;71.30;99152.09;5075197;27;45345;-59
2021/12/27 09:48:05;;;;;;;;;6.00;6.00;;;;;11.96;71.16;99153.00;5075439;27;45305;-61
2021/12/27 09:50:34;;;;;;;;;5.00;3.25;;;;;12.01;70.65;99147.63;5075355;27;46536;-61
2021/12/27 09:53:00;;;;;;;;;7.00;6.25;;;;;11.96;71.66;99143.19;5074930;27;45388;-62
2021/12/27 09:55:27;;;;;;;;;6.00;5.00;;;;;11.95;71.46;99137.84;5072169;28;45290;-62
2021/12/27 09:57:52;;;;;;;;;6.50;5.00;;;;;11.86;71.62;99130.69;5054820;28;45443;-59
2021/12/27 10:00:18;;;;;;;;;5.50;4.75;;;;;11.91;71.43;99145.00;5054187;28;46154;-61
2021/12/27 10:02:45;;;;;;;;;2.75;2.75;;;;;11.92;71.78;99138.75;5066545;28;45535;-60
2021/12/27 10:05:11;;;;;;;;;9.50;6.75;;;;;11.92;71.78;99145.91;5061296;28;45518;-60
2021/12/27 10:07:41;;;;;;;;;7.00;5.00;;;;;11.90;71.59;99150.34;5068534;28;45334;-61
2021/12/27 10:10:10;;;;;;;;;6.75;5.25;;;;;11.91;72.10;99146.75;5054735;28;46436;-62
2021/12/27 10:12:36;;;;;;;;;8.50;8.50;;;;;11.94;72.15;99146.78;5062177;28;45394;-62
2021/12/27 10:15:05;;;;;;;;;4.50;2.00;;;;;11.95;71.70;99153.91;5058049;28;45507;-61
2021/12/27 10:17:32;;;;;;;;;6.75;6.00;;;;;11.92;71.71;99160.16;5054023;28;45429;-61
2021/12/27 10:20:15;;;;;;;;;4.75;4.75;;;;;11.86;72.34;99154.78;5053806;28;45330;-61
2021/12/27 10:22:43;;;;;;;;;6.00;4.50;;;;;11.90;72.57;99150.34;5053661;28;45405;-61
2021/12/27 10:25:20;;;;;;;;;7.25;5.50;;;;;11.84;72.39;99143.22;5053615;28;45413;-61
2021/12/27 10:27:47;;;;;;;;;4.75;4.75;;;;;11.77;73.31;99146.81;5053901;28;45287;-63
2021/12/27 10:30:16;;;;;;;;;5.50;5.00;;;;;11.72;72.99;99140.59;5060858;28;45470;-62
2021/12/27 10:32:42;;;;;;;;;5.25;4.50;;;;;11.66;73.37;99124.56;5062643;28;45481;-62
2021/12/27 10:35:09;;;;;;;;;10.00;8.25;;;;;11.74;74.07;99153.06;5074267;28;45503;-62
2021/12/27 10:37:37;;;;;;;;;5.00;5.00;;;;;11.74;72.90;99141.47;5074352;28;45329;-61
2021/12/27 10:40:10;;;;;;;;;5.50;4.00;;;;;11.75;72.85;99148.63;5073778;28;45460;-61
2021/12/27 10:42:43;;;;;;;;;4.25;4.00;;;;;11.75;73.75;99146.81;5064618;28;45522;-61
2021/12/27 10:45:20;;;;;;;;;10.75;6.75;;;;;11.67;73.33;99118.34;5061631;28;45376;-62
2021/12/27 10:48:02;;;;;;;;;6.75;6.75;;;;;11.79;72.55;99132.53;5053718;28;45525;-63
2021/12/27 10:50:31;;;;;;;;;8.50;6.00;;;;;11.73;72.68;99131.66;5058262;28;46399;-61
2021/12/27 10:53:06;;;;;;;;;5.00;3.50;;;;;11.70;73.45;99140.59;5056290;28;45467;-62
2021/12/27 10:55:35;;;;;;;;;6.25;6.25;;;;;11.70;72.66;99139.72;5057836;28;45597;-62
2021/12/27 10:58:11;;;;;;;;;10.75;9.25;;;;;11.72;73.02;99141.47;5073386;28;45473;-61
2021/12/27 11:00:37;;;;;;;;;5.75;5.75;;;;;11.74;73.42;99136.13;5073321;28;46223;-62
2021/12/27 11:03:03;;;;;;;;;4.00;4.00;;;;;11.69;72.90;99137.94;5073056;28;45474;-62
2021/12/27 11:05:30;;;;;;;;;9.25;6.00;;;;;11.76;73.62;99142.34;5072787;28;45517;-63
2021/12/27 11:08:03;;;;;;;;;6.50;6.50;;;;;11.78;72.35;99146.81;5073964;28;45663;-62
2021/12/27 11:10:31;;;;;;;;;6.50;4.25;;;;;11.81;73.21;99140.53;5072782;28;45475;-61
2021/12/27 11:12:59;;;;;;;;;5.00;5.00;;;;;11.79;73.24;99153.94;5072389;28;45508;-62
2021/12/27 11:15:27;;;;;;;;;5.75;4.50;;;;;11.29;73.22;99076.59;5073261;28;45557;-63
2021/12/27 11:17:52;;;;;;;;;4.75;4.75;;;;;11.75;73.72;99156.66;5072739;28;45412;-62
2021/12/27 11:20:18;;;;;;;;;6.00;5.00;;;;;11.75;73.17;99164.69;5072479;28;46270;-63
2021/12/27 11:22:44;;;;;;;;;9.00;7.25;;;;;11.70;73.46;99147.75;5072838;28;45370;-61
2021/12/27 11:25:31;;;;;;;;;22.50;21.25;;;;;11.74;73.95;99157.53;5073608;28;45409;-62
2021/12/27 11:27:58;;;;;;;;;1.00;0.00;;;;;11.66;73.66;99152.19;5074007;28;45623;-64
2021/12/27 11:30:27;;;;;;;;;7.00;7.00;;;;;11.78;73.91;99165.56;5071656;28;46426;-62
2021/12/27 11:33:20;;;;;;;;;17.75;12.25;;;;;11.85;73.07;99153.03;5072438;28;45458;-62
2021/12/27 11:35:51;;;;;;;;;11.25;11.25;;;;;11.90;73.16;99153.00;5069167;28;45599;-61
2021/12/27 11:38:26;;;;;;;;;8.75;7.50;;;;;11.92;73.11;99149.44;5073034;28;45364;-62